Time,TemperatureF,DewpointF,PressureIn,WindDirection,WindDirectionDegrees,WindSpeedMPH,WindSpeedGustMPH,Humidity,HourlyPrecipIn,Conditions,Clouds,dailyrainin,SoftwareType,DateUTC
2013-09-28 00:22:00,76.0,69.0,-100.00,ENE,70,9.0,-999.0,78,0.00,,,-99.99,,2013-09-28 05:22:00,
2013-09-28 00:34:00,76.0,69.0,-100.00,ENE,70,9.0,-999.0,78,0.00,,,-99.99,,2013-09-28 05:34:00,
2013-09-28 00:43:00,76.0,69.0,-100.00,ENE,70,9.0,-999.0,78,0.00,,,-99.99,,2013-09-28 05:43:00,
2013-09-28 01:22:00,76.0,68.0,-100.00,ENE,72,10.0,-999.0,77,0.00,,,-99.99,,2013-09-28 06:22:00,
2013-09-28 01:32:00,76.0,68.0,-100.00,ENE,72,10.0,-999.0,77,0.00,,,-99.99,,2013-09-28 06:32:00,
2013-09-28 01:42:00,76.0,68.0,-100.00,ENE,72,10.0,-999.0,77,0.00,,,-99.99,,2013-09-28 06:42:00,
2013-09-28 02:22:00,75.0,67.0,-100.00,ENE,75,11.0,-999.0,76,0.00,,,-99.99,,2013-09-28 07:22:00,
2013-09-28 02:32:00,75.0,67.0,-100.00,ENE,75,11.0,-999.0,76,0.00,,,-99.99,,2013-09-28 07:32:00,
2013-09-28 02:42:00,75.0,67.0,-100.00,ENE,75,11.0,-999.0,76,0.00,,,-99.99,,2013-09-28 07:42:00,
2013-09-28 03:21:00,75.0,68.0,-100.00,ENE,68,9.0,-999.0,79,0.00,,,-99.99,,2013-09-28 08:21:00,
2013-09-28 03:32:00,75.0,68.0,-100.00,ENE,68,9.0,-999.0,79,0.00,,,-99.99,,2013-09-28 08:32:00,
2013-09-28 03:43:00,75.0,68.0,-100.00,ENE,68,9.0,-999.0,79,0.00,,,-99.99,,2013-09-28 08:43:00,
2013-09-28 04:22:00,74.0,67.0,-100.00,ENE,62,8.0,-999.0,80,0.00,,,-99.99,,2013-09-28 09:22:00,
2013-09-28 04:33:00,74.0,67.0,-100.00,ENE,62,8.0,-999.0,80,0.00,,,-99.99,,2013-09-28 09:33:00,
2013-09-28 04:43:00,74.0,67.0,-100.00,ENE,62,8.0,-999.0,80,0.00,,,-99.99,,2013-09-28 09:43:00,
2013-09-28 05:22:00,73.0,67.0,-100.00,ENE,58,10.0,-999.0,82,0.00,,,-99.99,,2013-09-28 10:22:00,
2013-09-28 05:33:00,73.0,67.0,-100.00,ENE,58,10.0,-999.0,82,0.00,,,-99.99,,2013-09-28 10:33:00,
2013-09-28 05:43:00,73.0,67.0,-100.00,ENE,58,10.0,-999.0,82,0.00,,,-99.99,,2013-09-28 10:43:00,
2013-09-28 06:22:00,72.0,68.0,-100.00,ENE,66,8.0,-999.0,86,0.00,,,-99.99,,2013-09-28 11:22:00,
2013-09-28 06:33:00,72.0,68.0,-100.00,ENE,66,8.0,-999.0,86,0.00,,,-99.99,,2013-09-28 11:33:00,
2013-09-28 06:43:00,72.0,68.0,-100.00,ENE,66,8.0,-999.0,86,0.00,,,-99.99,,2013-09-28 11:43:00,
2013-09-28 07:22:00,72.0,68.0,-100.00,ENE,63,8.0,-999.0,89,0.00,,,-99.99,,2013-09-28 12:22:00,
2013-09-28 07:32:00,72.0,68.0,-100.00,ENE,63,8.0,-999.0,89,0.00,,,-99.99,,2013-09-28 12:32:00,
2013-09-28 07:42:00,72.0,68.0,-100.00,ENE,63,8.0,-999.0,89,0.00,,,-99.99,,2013-09-28 12:42:00,
2013-09-28 08:22:00,71.0,68.0,-100.00,NE,38,8.0,-999.0,91,0.00,,,-99.99,,2013-09-28 13:22:00,
2013-09-28 08:32:00,71.0,68.0,-100.00,NE,38,8.0,-999.0,91,0.00,,,-99.99,,2013-09-28 13:32:00,
2013-09-28 08:42:00,71.0,68.0,-100.00,NE,38,8.0,-999.0,91,0.00,,,-99.99,,2013-09-28 13:42:00,
2013-09-28 09:21:00,73.0,68.0,-100.00,ENE,70,13.0,-999.0,83,0.00,,,-99.99,,2013-09-28 14:21:00,
2013-09-28 09:32:00,73.0,68.0,-100.00,ENE,70,13.0,-999.0,83,0.00,,,-99.99,,2013-09-28 14:32:00,
2013-09-28 09:42:00,73.0,68.0,-100.00,ENE,70,13.0,-999.0,83,0.00,,,-99.99,,2013-09-28 14:42:00,
2013-09-28 10:23:00,75.0,69.0,-100.00,ENE,74,11.0,-999.0,80,0.00,,,-99.99,,2013-09-28 15:23:00,
2013-09-28 10:34:00,75.0,69.0,-100.00,ENE,74,11.0,-999.0,80,0.00,,,-99.99,,2013-09-28 15:34:00,
2013-09-28 10:44:00,75.0,69.0,-100.00,ENE,74,11.0,-999.0,80,0.00,,,-99.99,,2013-09-28 15:44:00,
2013-09-28 11:24:00,77.0,68.0,-100.00,East,93,10.0,-999.0,73,0.00,,,-99.99,,2013-09-28 16:24:00,
2013-09-28 11:34:00,77.0,68.0,-100.00,East,93,10.0,-999.0,73,0.00,,,-99.99,,2013-09-28 16:34:00,
2013-09-28 11:43:00,77.0,68.0,-100.00,East,93,10.0,-999.0,73,0.00,,,-99.99,,2013-09-28 16:43:00,
2013-09-28 12:23:00,78.0,69.0,-100.00,ESE,103,10.0,-999.0,72,0.00,,,-99.99,,2013-09-28 17:23:00,
2013-09-28 12:34:00,78.0,69.0,-100.00,ESE,103,10.0,-999.0,72,0.00,,,-99.99,,2013-09-28 17:34:00,
2013-09-28 12:43:00,78.0,69.0,-100.00,ESE,103,10.0,-999.0,72,0.00,,,-99.99,,2013-09-28 17:43:00,
2013-09-28 13:22:00,78.0,69.0,-100.00,SE,128,12.0,-999.0,74,0.00,,,-99.99,,2013-09-28 18:22:00,
2013-09-28 13:32:00,78.0,69.0,-100.00,SE,128,12.0,-999.0,74,0.00,,,-99.99,,2013-09-28 18:32:00,
2013-09-28 13:42:00,78.0,69.0,-100.00,SE,128,12.0,-999.0,74,0.00,,,-99.99,,2013-09-28 18:42:00,
2013-09-28 14:22:00,78.0,69.0,-100.00,SE,132,13.0,-999.0,73,0.00,,,-99.99,,2013-09-28 19:22:00,
2013-09-28 14:32:00,78.0,69.0,-100.00,SE,132,13.0,-999.0,73,0.00,,,-99.99,,2013-09-28 19:32:00,
2013-09-28 14:42:00,78.0,69.0,-100.00,SE,132,13.0,-999.0,73,0.00,,,-99.99,,2013-09-28 19:42:00,
2013-09-28 15:22:00,78.0,68.0,-100.00,SE,138,11.0,-999.0,71,0.00,,,-99.99,,2013-09-28 20:22:00,
2013-09-28 15:33:00,78.0,68.0,-100.00,SE,138,11.0,-999.0,71,0.00,,,-99.99,,2013-09-28 20:33:00,
2013-09-28 15:43:00,78.0,68.0,-100.00,SE,138,11.0,-999.0,71,0.00,,,-99.99,,2013-09-28 20:43:00,
2013-09-28 16:23:00,79.0,67.0,-100.00,SE,146,10.0,-999.0,66,0.00,,,-99.99,,2013-09-28 21:23:00,
2013-09-28 16:34:00,79.0,67.0,-100.00,SE,146,10.0,-999.0,66,0.00,,,-99.99,,2013-09-28 21:34:00,
2013-09-28 16:44:00,79.0,67.0,-100.00,SE,146,10.0,-999.0,66,0.00,,,-99.99,,2013-09-28 21:44:00,
2013-09-28 17:23:00,79.0,69.0,-100.00,SE,142,12.0,-999.0,71,0.00,,,-99.99,,2013-09-28 22:23:00,
2013-09-28 17:33:00,79.0,69.0,-100.00,SE,142,12.0,-999.0,71,0.00,,,-99.99,,2013-09-28 22:33:00,
2013-09-28 17:43:00,79.0,69.0,-100.00,SE,142,12.0,-999.0,71,0.00,,,-99.99,,2013-09-28 22:43:00,
2013-09-28 18:22:00,79.0,70.0,-100.00,SE,141,9.0,-999.0,73,0.00,,,-99.99,,2013-09-28 23:22:00,
2013-09-28 18:34:00,79.0,70.0,-100.00,SE,141,9.0,-999.0,73,0.00,,,-99.99,,2013-09-28 23:34:00,
2013-09-28 18:43:00,79.0,70.0,-100.00,SE,141,9.0,-999.0,73,0.00,,,-99.99,,2013-09-28 23:43:00,
2013-09-28 19:22:00,79.0,70.0,-100.00,SE,132,9.0,-999.0,74,0.00,,,-99.99,,2013-09-29 00:22:00,
2013-09-28 19:32:00,79.0,70.0,-100.00,SE,132,9.0,-999.0,74,0.00,,,-99.99,,2013-09-29 00:32:00,
2013-09-28 19:43:00,79.0,70.0,-100.00,SE,132,9.0,-999.0,74,0.00,,,-99.99,,2013-09-29 00:43:00,
2013-09-28 20:22:00,79.0,71.0,-100.00,SE,136,9.0,-999.0,76,0.00,,,-99.99,,2013-09-29 01:22:00,
2013-09-28 20:32:00,79.0,71.0,-100.00,SE,136,9.0,-999.0,76,0.00,,,-99.99,,2013-09-29 01:32:00,
2013-09-28 20:43:00,79.0,71.0,-100.00,SE,136,9.0,-999.0,76,0.00,,,-99.99,,2013-09-29 01:43:00,
2013-09-28 21:22:00,79.0,71.0,-100.00,SE,129,8.0,-999.0,76,0.00,,,-99.99,,2013-09-29 02:22:00,
2013-09-28 21:32:00,79.0,71.0,-100.00,SE,129,8.0,-999.0,76,0.00,,,-99.99,,2013-09-29 02:32:00,
2013-09-28 21:43:00,79.0,71.0,-100.00,SE,129,8.0,-999.0,76,0.00,,,-99.99,,2013-09-29 02:43:00,
2013-09-28 22:23:00,78.0,70.0,-100.00,ESE,102,5.0,-999.0,77,0.00,,,-99.99,,2013-09-29 03:23:00,
2013-09-28 22:34:00,78.0,70.0,-100.00,ESE,102,5.0,-999.0,77,0.00,,,-99.99,,2013-09-29 03:34:00,
2013-09-28 22:44:00,78.0,70.0,-100.00,ESE,102,5.0,-999.0,77,0.00,,,-99.99,,2013-09-29 03:44:00,
2013-09-28 23:24:00,71.0,-99.9,-100.00,North,3,4.0,-999.0,104,0.00,,,-99.99,,2013-09-29 04:24:00,
2013-09-28 23:34:00,71.0,-99.9,-100.00,North,3,4.0,-999.0,104,0.00,,,-99.99,,2013-09-29 04:34:00,
2013-09-28 23:44:00,71.0,-99.9,-100.00,North,3,4.0,-999.0,104,0.00,,,-99.99,,2013-09-29 04:44:00,